Time,TemperatureF,DewpointF,PressureIn,WindDirection,WindDirectionDegrees,WindSpeedMPH,WindSpeedGustMPH,Humidity,HourlyPrecipIn,Conditions,Clouds,dailyrainin,SolarRadiationWatts/m^2,SoftwareType,DateUTC
2013-10-23 00:12:00,45.0,16.0,-100.00,North,355,3.0,4.0,31,-99.99,,,0.00,0.000000,,2013-10-23 06:12:00,
2013-10-23 00:42:00,45.0,16.0,-100.00,North,355,3.0,4.0,31,-99.99,,,0.00,0.000000,,2013-10-23 06:42:00,
2013-10-23 01:12:00,44.0,15.0,-100.00,ENE,57,1.0,5.0,30,-99.99,,,0.00,0.000000,,2013-10-23 07:12:00,
2013-10-23 01:42:00,44.0,15.0,-100.00,ENE,57,1.0,5.0,30,-99.99,,,0.00,0.000000,,2013-10-23 07:42:00,
2013-10-23 01:52:00,44.0,15.0,-100.00,ENE,57,1.0,5.0,30,-99.99,,,0.00,0.000000,,2013-10-23 07:52:00,
2013-10-23 02:02:00,44.0,15.0,-100.00,ENE,57,1.0,5.0,30,-99.99,,,0.00,0.000000,,2013-10-23 08:02:00,
2013-10-23 02:12:00,45.0,16.0,-100.00,North,1,3.0,3.0,31,0.00,,,0.00,0.000000,,2013-10-23 08:12:00,
2013-10-23 03:12:00,44.0,15.0,-100.00,NNE,20,2.0,4.0,31,-99.99,,,-99.99,0.000000,,2013-10-23 09:12:00,
2013-10-23 03:43:00,44.0,15.0,-100.00,NNE,20,2.0,4.0,31,-99.99,,,-99.99,0.000000,,2013-10-23 09:43:00,
2013-10-23 04:43:00,43.0,15.0,-100.00,NNW,344,4.0,5.0,32,0.00,,,0.00,0.000000,,2013-10-23 10:43:00,
2013-10-23 05:12:00,43.0,15.0,-100.00,NNW,335,5.0,6.0,32,-99.99,,,0.00,0.000000,,2013-10-23 11:12:00,
2013-10-23 05:42:00,43.0,15.0,-100.00,NNW,335,5.0,6.0,32,-99.99,,,0.00,0.000000,,2013-10-23 11:42:00,
2013-10-23 06:42:00,43.0,15.0,-100.00,SSE,168,1.0,6.0,32,0.00,,,0.00,0.000000,,2013-10-23 12:42:00,
2013-10-23 07:43:00,41.0,14.0,-100.00,ESE,119,5.0,7.0,33,0.00,,,0.00,0.000000,,2013-10-23 13:43:00,
2013-10-23 08:11:00,41.0,14.0,-100.00,ESE,119,5.0,7.0,33,0.00,,,0.00,0.000000,,2013-10-23 14:11:00,
2013-10-23 10:12:00,53.0,17.0,-100.00,NNW,329,3.0,7.0,24,0.00,,,0.00,384.000000,,2013-10-23 16:12:00,
2013-10-23 10:43:00,53.0,17.0,-100.00,NNW,329,3.0,7.0,24,0.00,,,0.00,384.000000,,2013-10-23 16:43:00,
2013-10-23 11:12:00,56.0,21.0,-100.00,West,272,4.0,7.0,25,0.00,,,0.00,528.000000,,2013-10-23 17:12:00,
2013-10-23 11:44:00,56.0,21.0,-100.00,West,272,4.0,7.0,25,0.00,,,0.00,528.000000,,2013-10-23 17:44:00,
2013-10-23 11:52:00,56.0,21.0,-100.00,West,272,4.0,7.0,25,0.00,,,0.00,528.000000,,2013-10-23 17:52:00,
2013-10-23 12:01:00,56.0,21.0,-100.00,West,272,4.0,7.0,25,0.00,,,0.00,528.000000,,2013-10-23 18:01:00,
2013-10-23 13:42:00,60.0,21.0,-100.00,WNW,295,4.0,11.0,22,-99.99,,,0.00,666.000000,,2013-10-23 19:42:00,
2013-10-23 13:53:00,60.0,21.0,-100.00,WNW,295,4.0,11.0,22,-99.99,,,0.00,666.000000,,2013-10-23 19:53:00,
2013-10-23 14:02:00,60.0,21.0,-100.00,WNW,295,4.0,11.0,22,-99.99,,,0.00,666.000000,,2013-10-23 20:02:00,
2013-10-23 14:11:00,60.0,21.0,-100.00,WNW,295,4.0,11.0,22,-99.99,,,0.00,666.000000,,2013-10-23 20:11:00,
2013-10-23 14:42:00,63.0,16.0,-100.00,South,189,6.0,12.0,16,0.00,,,0.00,649.000000,,2013-10-23 20:42:00,
2013-10-23 14:52:00,63.0,16.0,-100.00,South,189,6.0,12.0,16,0.00,,,0.00,649.000000,,2013-10-23 20:52:00,
2013-10-23 15:02:00,63.0,16.0,-100.00,South,189,6.0,12.0,16,0.00,,,0.00,649.000000,,2013-10-23 21:02:00,
2013-10-23 15:11:00,63.0,16.0,-100.00,South,189,6.0,12.0,16,0.00,,,0.00,649.000000,,2013-10-23 21:11:00,
2013-10-23 15:12:00,64.0,15.0,-100.00,South,188,5.0,11.0,15,0.00,,,0.00,572.000000,,2013-10-23 21:12:00,
2013-10-23 15:43:00,64.0,15.0,-100.00,South,188,5.0,11.0,15,0.00,,,0.00,572.000000,,2013-10-23 21:43:00,
2013-10-23 15:54:00,64.0,15.0,-100.00,South,188,5.0,11.0,15,0.00,,,0.00,572.000000,,2013-10-23 21:54:00,
2013-10-23 16:04:00,64.0,15.0,-100.00,South,188,5.0,11.0,15,0.00,,,0.00,572.000000,,2013-10-23 22:04:00,
2013-10-23 16:12:00,61.0,14.0,-100.00,South,174,5.0,10.0,16,0.00,,,0.00,353.000000,,2013-10-23 22:12:00,
2013-10-23 16:43:00,61.0,14.0,-100.00,South,174,5.0,10.0,16,0.00,,,0.00,353.000000,,2013-10-23 22:43:00,
2013-10-23 16:54:00,61.0,14.0,-100.00,South,174,5.0,10.0,16,0.00,,,0.00,353.000000,,2013-10-23 22:54:00,
2013-10-23 17:03:00,61.0,14.0,-100.00,South,174,5.0,10.0,16,0.00,,,0.00,353.000000,,2013-10-23 23:03:00,
2013-10-23 17:12:00,56.0,14.0,-100.00,SSW,192,7.0,10.0,19,0.00,,,0.00,76.000000,,2013-10-23 23:12:00,
2013-10-23 17:42:00,56.0,14.0,-100.00,SSW,192,7.0,10.0,19,0.00,,,0.00,76.000000,,2013-10-23 23:42:00,
2013-10-23 17:52:00,56.0,14.0,-100.00,SSW,192,7.0,10.0,19,0.00,,,0.00,76.000000,,2013-10-23 23:52:00,
2013-10-23 18:02:00,56.0,14.0,-100.00,SSW,192,7.0,10.0,19,0.00,,,0.00,76.000000,,2013-10-24 00:02:00,
2013-10-23 18:42:00,53.0,14.0,-100.00,SW,236,5.0,10.0,21,0.00,,,0.00,44.000000,,2013-10-24 00:42:00,
2013-10-23 18:52:00,53.0,14.0,-100.00,SW,236,5.0,10.0,21,0.00,,,0.00,44.000000,,2013-10-24 00:52:00,
2013-10-23 19:01:00,53.0,14.0,-100.00,SW,236,5.0,10.0,21,0.00,,,0.00,44.000000,,2013-10-24 01:01:00,
2013-10-23 19:11:00,53.0,14.0,-100.00,SW,236,5.0,10.0,21,0.00,,,0.00,44.000000,,2013-10-24 01:11:00,
2013-10-23 19:12:00,51.0,11.0,-100.00,SW,236,5.0,7.0,20,0.00,,,0.00,1.000000,,2013-10-24 01:12:00,
2013-10-23 19:42:00,51.0,11.0,-100.00,SW,236,5.0,7.0,20,0.00,,,0.00,1.000000,,2013-10-24 01:42:00,
2013-10-23 19:52:00,51.0,11.0,-100.00,SW,236,5.0,7.0,20,0.00,,,0.00,1.000000,,2013-10-24 01:52:00,
2013-10-23 20:02:00,51.0,11.0,-100.00,SW,236,5.0,7.0,20,0.00,,,0.00,1.000000,,2013-10-24 02:02:00,
2013-10-23 20:12:00,51.0,12.0,-100.00,West,259,6.0,10.0,21,0.00,,,0.00,0.000000,,2013-10-24 02:12:00,
2013-10-23 20:52:00,51.0,12.0,-100.00,West,259,6.0,10.0,21,0.00,,,0.00,0.000000,,2013-10-24 02:52:00,
2013-10-23 21:02:00,51.0,12.0,-100.00,West,259,6.0,10.0,21,0.00,,,0.00,0.000000,,2013-10-24 03:02:00,
2013-10-23 21:12:00,49.0,11.0,-100.00,WNW,293,6.0,9.0,21,0.00,,,-99.99,0.000000,,2013-10-24 03:12:00,
2013-10-23 21:44:00,49.0,11.0,-100.00,WNW,293,6.0,9.0,21,0.00,,,-99.99,0.000000,,2013-10-24 03:44:00,
2013-10-23 22:12:00,49.0,12.0,-100.00,NW,318,5.0,6.0,22,-99.99,,,0.00,0.000000,,2013-10-24 04:12:00,
2013-10-23 22:44:00,49.0,12.0,-100.00,NW,318,5.0,6.0,22,-99.99,,,0.00,0.000000,,2013-10-24 04:44:00,
2013-10-23 23:12:00,48.0,15.0,-100.00,NNW,335,6.0,7.0,26,-99.99,,,0.00,0.000000,,2013-10-24 05:12:00,
2013-10-23 23:43:00,48.0,15.0,-100.00,NNW,335,6.0,7.0,26,-99.99,,,0.00,0.000000,,2013-10-24 05:43:00,